Jack Guidry — WDF2422 — position and weather

sailwx.info

Track history (hours):
 
Tides and Currents Weather Stations Pressure Air Temp Water Temp Dewpoint Dewpoint Depression Visibility Wind Speed Wind Dir Waves Ship Positions

Jack Guidry

Owner: Enterprise Marine Services, LLC, San Antonio, TX. More information available from US FCC via Universal Licensing System and Coast Guard Vessel Documentation Center.

Last reported at 2015-Aug-31 23:27 UTC. Time now 2015-Sep-03 23:31 UTC.
Position N 29°30' W 094°52'.

Length 22 m; draft 2.5 m.

Type: Other ship. MMSI: 367003430.

Date/timePositionNaut miles runAvg speedWind from/ knotsBaromVisibWave heightAir tempDewpointWater temp
2015-Aug-31 23:27N 29°30' W 094°52'8 6.7
2015-Aug-31 22:18N 29°36' W 094°57'5 6.1
2015-Aug-31 21:34N 29°40' W 094°59'8 5.6
2015-Aug-31 20:07N 29°47' W 095°05'2 1.0
2015-Aug-31 18:23N 29°46' W 095°06'0 0.0
2015-Aug-31 17:33N 29°45' W 095°06'5 0.2
2015-Aug-30 15:28N 29°45' W 095°11'4 4.3
2015-Aug-30 14:33N 29°44' W 095°07'3 0.1
2015-Aug-29 13:03N 29°47' W 095°05'0 0.0
2015-Aug-29 12:24N 29°47' W 095°05'0 0.0
2015-Aug-29 11:22N 29°47' W 095°05'0 0.0
2015-Aug-29 10:29N 29°47' W 095°05'0 0.0
2015-Aug-29 09:33N 29°47' W 095°05'0 0.0
2015-Aug-29 08:33N 29°47' W 095°05'0 0.0
2015-Aug-29 07:30N 29°47' W 095°05'0 0.0
2015-Aug-29 06:30N 29°47' W 095°05'1 0.2
2015-Aug-28 21:13N 29°46' W 095°05'2 3.2
2015-Aug-28 20:33N 29°44' W 095°03'5 5.3
2015-Aug-28 19:34N 29°41' W 094°59'7 6.7
2015-Aug-28 18:33N 29°34' W 094°56'  
2015-Aug-26 12:29N 29°44' W 094°06'43 3.3
2015-Aug-25 23:27N 29°22' W 094°48'9 0.3
2015-Aug-24 21:16N 29°30' W 094°52'4 5.4
2015-Aug-24 20:33N 29°33' W 094°54'5 4.7
2015-Aug-24 19:33N 29°37' W 094°57'5 5.0
2015-Aug-24 18:34N 29°41' W 094°59'5 5.2
2015-Aug-24 17:32N 29°45' W 095°04'3 0.1
2015-Aug-22 19:29N 29°47' W 095°05'1 1.0
2015-Aug-22 18:25N 29°46' W 095°05'0 0.4
2015-Aug-22 17:32N 29°46' W 095°05'9 4.8
2015-Aug-22 15:33N 29°38' W 094°58'6 5.6
2015-Aug-22 14:34N 29°34' W 094°55'6 5.6
2015-Aug-22 13:33N 29°29' W 094°51'  
Track history (hours):
 
Tides and Currents Weather Stations Pressure Air Temp Water Temp Dewpoint Dewpoint Depression Visibility Wind Speed Wind Dir Waves Ship Positions

Jack Guidry

Owner: Enterprise Marine Services, LLC, San Antonio, TX. More information available from US FCC via Universal Licensing System and Coast Guard Vessel Documentation Center.

Last reported at 2015-Aug-31 23:27 UTC. Time now 2015-Sep-03 23:31 UTC.
Position N 29°30' W 094°52'.

Length 22 m; draft 2.5 m.

Type: Other ship. MMSI: 367003430.

Date/timePositionNaut miles runAvg speedWind from/ knotsBaromVisibWave heightAir tempDewpointWater temp
2015-Aug-31 23:27N 29°30' W 094°52'8 6.7
2015-Aug-31 22:18N 29°36' W 094°57'5 6.1
2015-Aug-31 21:34N 29°40' W 094°59'8 5.6
2015-Aug-31 20:07N 29°47' W 095°05'2 1.0
2015-Aug-31 18:23N 29°46' W 095°06'0 0.0
2015-Aug-31 17:33N 29°45' W 095°06'5 0.2
2015-Aug-30 15:28N 29°45' W 095°11'4 4.3
2015-Aug-30 14:33N 29°44' W 095°07'3 0.1
2015-Aug-29 13:03N 29°47' W 095°05'0 0.0
2015-Aug-29 12:24N 29°47' W 095°05'0 0.0
2015-Aug-29 11:22N 29°47' W 095°05'0 0.0
2015-Aug-29 10:29N 29°47' W 095°05'0 0.0
2015-Aug-29 09:33N 29°47' W 095°05'0 0.0
2015-Aug-29 08:33N 29°47' W 095°05'0 0.0
2015-Aug-29 07:30N 29°47' W 095°05'0 0.0
2015-Aug-29 06:30N 29°47' W 095°05'1 0.2
2015-Aug-28 21:13N 29°46' W 095°05'2 3.2
2015-Aug-28 20:33N 29°44' W 095°03'5 5.3
2015-Aug-28 19:34N 29°41' W 094°59'7 6.7
2015-Aug-28 18:33N 29°34' W 094°56'  
2015-Aug-26 12:29N 29°44' W 094°06'43 3.3
2015-Aug-25 23:27N 29°22' W 094°48'9 0.3
2015-Aug-24 21:16N 29°30' W 094°52'4 5.4
2015-Aug-24 20:33N 29°33' W 094°54'5 4.7
2015-Aug-24 19:33N 29°37' W 094°57'5 5.0
2015-Aug-24 18:34N 29°41' W 094°59'5 5.2
2015-Aug-24 17:32N 29°45' W 095°04'3 0.1
2015-Aug-22 19:29N 29°47' W 095°05'1 1.0
2015-Aug-22 18:25N 29°46' W 095°05'0 0.4
2015-Aug-22 17:32N 29°46' W 095°05'9 4.8
2015-Aug-22 15:33N 29°38' W 094°58'6 5.6
2015-Aug-22 14:34N 29°34' W 094°55'6 5.6
2015-Aug-22 13:33N 29°29' W 094°51'  

Dump ship's entire track history